Time;durP1;ratioP1;P1;durP2;ratioP2;P2;SDS_P1;SDS_P2;PMS_P1;PMS_P2;Temp;Humidity;BMP_temperature;BMP_pressure;BME280_temperature;BME280_humidity;BME280_pressure;Samples;Min_cycle;Max_cycle;Signal;HPM_P1;HPM_P2
2022/10/08 00:01:43;;;;;;;4.87;1.73;;;13.60;99.90;;;;;;5016435;28;20239;-73
2022/10/08 00:04:10;;;;;;;4.77;1.47;;;13.50;99.90;;;;;;5033979;28;20193;-73
2022/10/08 00:06:36;;;;;;;9.13;1.73;;;13.50;99.90;;;;;;5034184;28;20169;-73
2022/10/08 00:09:05;;;;;;;7.67;1.63;;;13.50;99.90;;;;;;5034263;28;20180;-73
2022/10/08 00:11:34;;;;;;;4.57;1.33;;;13.50;99.90;;;;;;5034042;28;20193;-73
2022/10/08 00:14:01;;;;;;;3.75;1.63;;;13.40;99.90;;;;;;5033642;28;20228;-73
2022/10/08 00:16:28;;;;;;;5.35;1.30;;;13.40;99.90;;;;;;5034171;28;20170;-73
2022/10/08 00:19:00;;;;;;;3.67;1.70;;;13.40;99.90;;;;;;5034006;28;20224;-73
2022/10/08 00:21:32;;;;;;;5.30;1.85;;;13.30;99.90;;;;;;5016326;28;20169;-73
2022/10/08 00:24:00;;;;;;;3.78;1.40;;;13.30;99.90;;;;;;5033583;28;20567;-74
2022/10/08 00:26:30;;;;;;;2.85;1.77;;;13.20;99.90;;;;;;5033889;28;20162;-73
2022/10/08 00:29:00;;;;;;;4.15;1.60;;;13.20;99.90;;;;;;5016130;28;20181;-73
2022/10/08 00:31:35;;;;;;;4.10;1.67;;;13.20;99.90;;;;;;5015833;28;20642;-74
2022/10/08 00:34:05;;;;;;;6.93;2.08;;;13.10;99.90;;;;;;5033302;28;20739;-74
2022/10/08 00:36:32;;;;;;;9.75;1.95;;;13.10;99.90;;;;;;5033690;28;20174;-73
2022/10/08 00:39:04;;;;;;;5.78;1.55;;;13.10;99.90;;;;;;5033624;28;20162;-74
2022/10/08 00:41:32;;;;;;;6.45;1.38;;;13.00;99.90;;;;;;5033620;28;20174;-73
2022/10/08 00:44:03;;;;;;;4.78;1.40;;;13.00;99.90;;;;;;5033090;28;20288;-73
2022/10/08 00:46:49;;;;;;;2.97;1.20;;;13.00;99.90;;;;;;5033677;28;20177;-74
2022/10/08 00:49:20;;;;;;;5.55;1.23;;;12.90;99.90;;;;;;5033506;28;20180;-73
2022/10/08 00:51:54;;;;;;;4.32;1.63;;;12.90;99.90;;;;;;5015298;28;20180;-74
2022/10/08 00:54:22;;;;;;;6.60;2.00;;;12.80;99.90;;;;;;5032952;28;20205;-74
2022/10/08 00:56:52;;;;;;;3.83;1.73;;;12.90;99.90;;;;;;5015547;28;20185;-73
2022/10/08 00:59:19;;;;;;;4.25;1.45;;;12.80;99.90;;;;;;5033634;28;20181;-73
2022/10/08 01:01:45;;;;;;;4.88;1.42;;;12.90;99.90;;;;;;5033145;28;20173;-74
2022/10/08 01:04:13;;;;;;;7.30;1.60;;;12.80;99.90;;;;;;5032753;28;20189;-73
2022/10/08 01:07:10;;;;;;;4.55;1.50;;;12.80;99.90;;;;;;5015444;28;20177;-73
2022/10/08 01:10:04;;;;;;;5.10;1.60;;;12.80;99.90;;;;;;5033149;28;20174;-73
2022/10/08 01:12:40;;;;;;;4.60;1.38;;;12.80;99.90;;;;;;5015046;28;20253;-74
2022/10/08 01:15:22;;;;;;;6.15;2.22;;;12.80;99.90;;;;;;5032700;28;20224;-73
2022/10/08 01:17:52;;;;;;;3.45;1.23;;;12.80;99.90;;;;;;5033050;28;20196;-73
2022/10/08 01:20:31;;;;;;;5.40;1.85;;;12.80;99.90;;;;;;5032815;28;20166;-73
2022/10/08 01:23:12;;;;;;;8.52;1.73;;;12.80;99.90;;;;;;5032638;28;20165;-73
2022/10/08 01:26:07;;;;;;;6.60;1.90;;;12.70;99.90;;;;;;5032312;28;20616;-73
2022/10/08 01:28:40;;;;;;;8.43;2.67;;;12.70;99.90;;;;;;5032763;28;20267;-73
2022/10/08 01:31:13;;;;;;;6.68;3.58;;;12.70;99.90;;;;;;5032591;28;20181;-74
2022/10/08 01:33:47;;;;;;;8.40;2.15;;;12.80;99.90;;;;;;5032223;28;20284;-74
2022/10/08 01:36:17;;;;;;;7.78;2.22;;;12.80;99.90;;;;;;5015088;28;20165;-74
2022/10/08 01:38:48;;;;;;;6.05;1.90;;;12.70;99.90;;;;;;5032352;28;20166;-74
2022/10/08 01:41:16;;;;;;;5.70;1.85;;;12.70;99.90;;;;;;5032435;28;20189;-74
2022/10/08 01:43:48;;;;;;;6.32;2.30;;;12.70;99.90;;;;;;5014171;28;20181;-74
2022/10/08 01:46:23;;;;;;;7.47;2.00;;;12.70;99.90;;;;;;5031210;28;20646;-74
2022/10/08 01:48:52;;;;;;;4.95;1.95;;;12.70;99.90;;;;;;5032394;28;20173;-74
2022/10/08 01:51:31;;;;;;;4.47;1.60;;;12.70;99.90;;;;;;5032306;28;20177;-74
2022/10/08 01:54:00;;;;;;;5.75;1.40;;;12.70;99.90;;;;;;5031808;28;20229;-74
2022/10/08 01:56:28;;;;;;;6.47;2.47;;;12.60;99.90;;;;;;5032191;28;20252;-74
2022/10/08 01:59:04;;;;;;;3.75;1.30;;;12.60;99.90;;;;;;5032159;28;20184;-73
2022/10/08 02:01:49;;;;;;;5.30;1.70;;;12.60;99.90;;;;;;4997980;28;20637;-73
2022/10/08 02:04:32;;;;;;;5.65;1.42;;;12.60;99.90;;;;;;5031177;28;20193;-73
2022/10/08 02:07:19;;;;;;;7.00;2.08;;;12.60;99.90;;;;;;5031989;28;20173;-73
2022/10/08 02:09:50;;;;;;;7.00;1.95;;;12.50;99.90;;;;;;5031450;28;20192;-73
2022/10/08 02:12:17;;;;;;;3.55;1.25;;;12.50;99.90;;;;;;5031852;28;20180;-73
2022/10/08 02:14:47;;;;;;;4.35;1.67;;;12.50;99.90;;;;;;5031493;28;20712;-73
2022/10/08 02:17:16;;;;;;;6.75;1.80;;;12.50;99.90;;;;;;4997876;28;20185;-73
2022/10/08 02:19:51;;;;;;;4.30;0.98;;;12.40;99.90;;;;;;5014177;28;20192;-74
2022/10/08 02:22:20;;;;;;;5.55;1.45;;;12.40;99.90;;;;;;5031565;28;20166;-74
2022/10/08 02:24:51;;;;;;;3.55;1.50;;;12.40;99.90;;;;;;5031271;28;20197;-74
2022/10/08 02:27:26;;;;;;;5.72;1.63;;;12.50;99.90;;;;;;5031835;28;20174;-74
2022/10/08 02:30:08;;;;;;;5.18;1.52;;;12.50;99.90;;;;;;5031675;28;20169;-73
2022/10/08 02:33:03;;;;;;;5.70;1.70;;;12.40;99.90;;;;;;5031441;28;20256;-74
2022/10/08 02:35:44;;;;;;;4.10;1.48;;;12.40;99.90;;;;;;5029012;28;20243;-73
2022/10/08 02:38:16;;;;;;;5.15;1.60;;;12.40;99.90;;;;;;5031511;28;20235;-73
2022/10/08 02:40:47;;;;;;;6.82;1.95;;;12.40;99.90;;;;;;5031536;28;20174;-73
2022/10/08 02:43:19;;;;;;;4.07;1.50;;;12.40;99.90;;;;;;5031564;28;20527;-73
2022/10/08 02:46:09;;;;;;;3.65;1.10;;;12.50;99.90;;;;;;5031057;28;20206;-73
2022/10/08 02:48:36;;;;;;;3.95;1.38;;;12.50;99.90;;;;;;5031087;28;20185;-73
2022/10/08 02:51:14;;;;;;;5.68;1.73;;;12.40;99.90;;;;;;5031848;28;20166;-74
2022/10/08 02:53:40;;;;;;;6.00;1.30;;;12.40;99.90;;;;;;5031121;28;20201;-73
2022/10/08 02:56:06;;;;;;;3.25;1.25;;;12.40;99.90;;;;;;5031479;28;20193;-73
2022/10/08 02:58:32;;;;;;;3.40;1.30;;;12.40;99.90;;;;;;5031528;28;20231;-73
2022/10/08 03:01:08;;;;;;;5.03;1.25;;;12.40;99.90;;;;;;5030788;28;20169;-73
2022/10/08 03:03:39;;;;;;;5.70;1.70;;;12.40;99.90;;;;;;5006906;28;20199;-73
2022/10/08 03:06:10;;;;;;;4.70;1.33;;;12.40;99.90;;;;;;5031439;28;20583;-73
2022/10/08 03:08:41;;;;;;;5.65;1.45;;;12.40;99.90;;;;;;5031292;28;20169;-73
2022/10/08 03:11:08;;;;;;;3.55;1.02;;;12.40;99.90;;;;;;5031290;28;20181;-73
2022/10/08 03:13:40;;;;;;;6.10;1.63;;;12.50;99.90;;;;;;5030951;28;20284;-73
2022/10/08 03:16:10;;;;;;;7.50;2.00;;;12.40;99.90;;;;;;5033460;28;20577;-73
2022/10/08 03:18:37;;;;;;;6.35;1.73;;;12.50;99.90;;;;;;5035275;28;20530;-73
2022/10/08 03:21:06;;;;;;;3.80;1.10;;;12.50;99.90;;;;;;5035229;28;20189;-73
2022/10/08 03:23:31;;;;;;;5.32;1.52;;;12.50;99.90;;;;;;5034778;28;20178;-73
2022/10/08 03:25:57;;;;;;;4.80;1.00;;;12.60;99.90;;;;;;5034820;28;20258;-73
2022/10/08 03:28:23;;;;;;;9.53;1.13;;;12.60;99.90;;;;;;5035088;28;20169;-73
2022/10/08 03:30:49;;;;;;;4.10;1.20;;;12.60;99.90;;;;;;5035050;28;20236;-73
2022/10/08 03:33:14;;;;;;;7.00;2.07;;;12.60;99.90;;;;;;5034674;28;20197;-73
2022/10/08 03:35:44;;;;;;;3.03;1.17;;;12.70;99.90;;;;;;5034540;28;20595;-73
2022/10/08 03:38:11;;;;;;;5.57;1.20;;;12.70;99.90;;;;;;5034768;28;20245;-73
2022/10/08 03:40:36;;;;;;;3.20;1.13;;;12.80;99.90;;;;;;5034711;28;20248;-73
2022/10/08 03:43:02;;;;;;;3.43;1.20;;;12.80;99.90;;;;;;5034687;28;20256;-73
2022/10/08 03:45:28;;;;;;;4.90;1.20;;;12.80;99.90;;;;;;5034281;28;20194;-73
2022/10/08 03:47:54;;;;;;;4.83;1.30;;;12.80;99.90;;;;;;5034634;28;20166;-73
2022/10/08 03:50:20;;;;;;;6.60;1.57;;;12.90;99.90;;;;;;5016880;28;20174;-73
2022/10/08 03:52:46;;;;;;;4.95;1.67;;;12.90;99.90;;;;;;5016582;28;20641;-73
2022/10/08 03:55:12;;;;;;;4.37;1.40;;;12.90;99.90;;;;;;5034137;28;20284;-73
2022/10/08 03:57:37;;;;;;;4.03;1.07;;;12.90;99.90;;;;;;5034502;28;20629;-73
2022/10/08 04:00:04;;;;;;;7.87;1.30;;;12.90;99.90;;;;;;5034349;28;20659;-73
2022/10/08 04:02:31;;;;;;;4.57;1.90;;;12.90;99.90;;;;;;5034188;28;20158;-73
2022/10/08 04:04:57;;;;;;;5.45;1.98;;;12.90;99.90;;;;;;5033995;28;20200;-73
2022/10/08 04:07:23;;;;;;;3.65;1.15;;;13.00;99.90;;;;;;5034309;28;20220;-73
2022/10/08 04:09:48;;;;;;;5.00;1.27;;;13.00;99.90;;;;;;5034190;28;20638;-73
2022/10/08 04:12:14;;;;;;;3.50;1.27;;;13.10;99.90;;;;;;5034080;28;20610;-73
2022/10/08 04:14:40;;;;;;;6.77;1.60;;;13.10;99.90;;;;;;5033816;28;20212;-74
2022/10/08 04:17:06;;;;;;;5.60;1.20;;;13.20;99.90;;;;;;5034089;28;20572;-73
2022/10/08 04:19:31;;;;;;;3.97;1.10;;;13.30;99.90;;;;;;5033987;28;20165;-74
2022/10/08 04:21:57;;;;;;;5.00;1.00;;;13.30;99.90;;;;;;5016226;28;20212;-74
2022/10/08 04:24:23;;;;;;;5.27;1.40;;;13.40;99.90;;;;;;5033698;28;20197;-74
2022/10/08 04:26:48;;;;;;;10.93;1.53;;;13.50;99.90;;;;;;5033178;28;20176;-73
2022/10/08 04:29:14;;;;;;;8.37;1.10;;;13.60;99.90;;;;;;5033669;28;20177;-74
2022/10/08 04:31:40;;;;;;;8.13;2.13;;;13.60;99.90;;;;;;5015781;28;20178;-74
2022/10/08 04:34:06;;;;;;;4.60;1.30;;;13.70;99.90;;;;;;5015532;28;20201;-74
2022/10/08 04:36:31;;;;;;;3.33;1.23;;;13.70;99.90;;;;;;5033610;28;20247;-74
2022/10/08 04:38:57;;;;;;;4.10;1.63;;;13.80;99.90;;;;;;5033755;28;20174;-74
2022/10/08 04:41:25;;;;;;;9.47;1.30;;;13.80;99.90;;;;;;5033518;28;20256;-74
2022/10/08 04:43:52;;;;;;;4.72;1.40;;;13.80;99.90;;;;;;5032941;28;20232;-74
2022/10/08 04:46:20;;;;;;;3.42;1.10;;;13.90;99.90;;;;;;5015781;28;20177;-74
2022/10/08 04:48:49;;;;;;;4.00;1.15;;;13.90;99.90;;;;;;5015562;28;20170;-74
2022/10/08 04:51:16;;;;;;;2.60;1.17;;;14.00;99.90;;;;;;5033259;28;20169;-74
2022/10/08 04:53:42;;;;;;;3.65;1.20;;;14.00;99.90;;;;;;5015158;28;20189;-74
2022/10/08 04:56:09;;;;;;;6.95;1.30;;;14.00;99.90;;;;;;5015598;28;20654;-74
2022/10/08 04:58:35;;;;;;;3.75;1.27;;;14.00;99.90;;;;;;5033291;28;20685;-74
2022/10/08 05:01:06;;;;;;;4.20;1.40;;;14.00;99.90;;;;;;5033242;28;20262;-74
2022/10/08 05:03:40;;;;;;;4.00;1.20;;;14.00;99.90;;;;;;5032951;28;20181;-74
2022/10/08 05:06:06;;;;;;;7.35;2.17;;;14.00;99.90;;;;;;5033318;28;20552;-75
2022/10/08 05:08:33;;;;;;;3.75;1.77;;;14.10;99.90;;;;;;5033266;28;20256;-74
2022/10/08 05:10:58;;;;;;;3.00;1.40;;;14.10;99.90;;;;;;5033352;28;20198;-75
2022/10/08 05:13:24;;;;;;;5.30;1.00;;;14.10;99.90;;;;;;5032478;28;20228;-74
2022/10/08 05:15:50;;;;;;;4.77;1.60;;;14.10;99.90;;;;;;5014985;28;20189;-75
2022/10/08 05:18:16;;;;;;;4.70;1.10;;;14.10;99.90;;;;;;5032735;28;20979;-75
2022/10/08 05:20:42;;;;;;;4.50;1.38;;;14.10;99.90;;;;;;5033017;28;20553;-74
2022/10/08 05:23:08;;;;;;;2.40;1.03;;;14.10;99.90;;;;;;5032762;28;20161;-74
2022/10/08 05:25:34;;;;;;;7.13;1.90;;;14.10;99.90;;;;;;5014798;28;20224;-74
2022/10/08 05:28:01;;;;;;;5.13;1.40;;;14.10;99.90;;;;;;5032763;28;20608;-74
2022/10/08 05:30:27;;;;;;;5.80;1.40;;;14.10;99.90;;;;;;5032713;28;20200;-74
2022/10/08 05:32:53;;;;;;;4.72;1.27;;;14.20;99.90;;;;;;5032414;28;20269;-74
2022/10/08 05:35:19;;;;;;;3.90;1.40;;;14.20;99.90;;;;;;5014558;28;20661;-74
2022/10/08 05:37:45;;;;;;;3.10;1.10;;;14.20;99.90;;;;;;5032786;28;20162;-74
2022/10/08 05:40:10;;;;;;;4.47;1.10;;;14.20;99.90;;;;;;5031508;28;20657;-75
2022/10/08 05:42:36;;;;;;;5.63;1.03;;;14.20;99.90;;;;;;5032390;28;20201;-74
2022/10/08 05:45:03;;;;;;;7.47;1.50;;;14.20;99.90;;;;;;5031967;28;20988;-74
2022/10/08 05:47:28;;;;;;;4.28;1.20;;;14.20;99.90;;;;;;5032543;28;20569;-74
2022/10/08 05:49:54;;;;;;;3.93;1.10;;;14.20;99.90;;;;;;5032197;28;20173;-74
2022/10/08 05:52:20;;;;;;;3.77;1.10;;;14.30;99.90;;;;;;5032058;28;20166;-74
2022/10/08 05:54:45;;;;;;;5.50;1.40;;;14.30;99.90;;;;;;4997857;28;20209;-74
2022/10/08 05:57:11;;;;;;;4.70;1.20;;;14.30;99.90;;;;;;5032112;28;20254;-74
2022/10/08 05:59:37;;;;;;;3.00;0.80;;;14.40;99.90;;;;;;5032080;28;20752;-73
2022/10/08 06:02:03;;;;;;;6.53;1.47;;;14.40;99.90;;;;;;5030475;28;20173;-74
2022/10/08 06:04:29;;;;;;;7.07;1.73;;;14.40;99.90;;;;;;5031700;28;20228;-74
2022/10/08 06:06:54;;;;;;;7.30;1.70;;;14.50;99.90;;;;;;5032071;28;20217;-74
2022/10/08 06:09:20;;;;;;;8.57;3.37;;;14.50;99.90;;;;;;5032108;28;20197;-74
2022/10/08 06:11:47;;;;;;;9.53;2.50;;;14.50;99.90;;;;;;5031825;28;20212;-74
2022/10/08 06:14:19;;;;;;;4.07;1.75;;;14.60;99.90;;;;;;5031483;28;20225;-74
2022/10/08 06:16:45;;;;;;;6.88;1.40;;;14.60;99.90;;;;;;5014154;28;20172;-74
2022/10/08 06:19:10;;;;;;;3.60;1.40;;;14.60;99.90;;;;;;5014276;28;20530;-74
2022/10/08 06:21:36;;;;;;;3.93;1.43;;;14.70;99.90;;;;;;5013825;28;20177;-75
2022/10/08 06:24:05;;;;;;;4.70;1.77;;;14.70;99.90;;;;;;5031266;28;20971;-74
2022/10/08 06:26:41;;;;;;;5.38;2.25;;;14.80;99.90;;;;;;5031694;28;20169;-74
2022/10/08 06:29:12;;;;;;;3.85;1.70;;;14.80;99.90;;;;;;5031720;28;20175;-75
2022/10/08 06:31:38;;;;;;;3.58;1.50;;;14.90;99.90;;;;;;5031452;28;20575;-74
2022/10/08 06:34:04;;;;;;;3.20;1.90;;;14.90;99.90;;;;;;5031195;28;20201;-73
2022/10/08 06:36:30;;;;;;;8.80;4.10;;;14.90;99.90;;;;;;5031571;28;20204;-74
2022/10/08 06:39:09;;;;;;;6.90;4.10;;;14.90;99.90;;;;;;5013766;28;21214;-73
2022/10/08 06:41:35;;;;;;;7.30;3.25;;;15.00;99.90;;;;;;5031518;28;20564;-74
2022/10/08 06:44:06;;;;;;;7.60;2.80;;;15.00;99.90;;;;;;5031124;28;20193;-74
2022/10/08 06:46:33;;;;;;;6.63;3.33;;;15.10;99.90;;;;;;5013847;28;20590;-74
2022/10/08 06:49:00;;;;;;;8.40;3.58;;;15.10;99.90;;;;;;5013813;28;20565;-73
2022/10/08 06:51:26;;;;;;;5.20;2.67;;;15.20;99.90;;;;;;5034478;28;20185;-73
2022/10/08 06:53:54;;;;;;;8.10;2.80;;;15.20;99.90;;;;;;5035163;28;20664;-73
2022/10/08 06:56:20;;;;;;;5.13;3.10;;;15.20;99.90;;;;;;5017722;28;20161;-73
2022/10/08 06:58:46;;;;;;;7.38;3.63;;;15.20;99.90;;;;;;5016705;28;20402;-73
2022/10/08 07:01:18;;;;;;;5.47;3.40;;;15.30;99.90;;;;;;5034777;28;20161;-73
2022/10/08 07:03:49;;;;;;;3.63;2.63;;;15.30;99.90;;;;;;5034884;28;21181;-73
2022/10/08 07:06:15;;;;;;;5.50;2.37;;;15.30;99.90;;;;;;5016268;28;20576;-73
2022/10/08 07:08:41;;;;;;;6.10;2.73;;;15.30;99.90;;;;;;5034915;28;20906;-73
2022/10/08 07:11:10;;;;;;;7.77;3.13;;;15.40;99.90;;;;;;5035075;28;20564;-74
2022/10/08 07:13:36;;;;;;;8.93;3.00;;;15.50;99.90;;;;;;5034763;28;20619;-73
2022/10/08 07:16:09;;;;;;;8.20;2.30;;;15.50;99.90;;;;;;5034995;28;20604;-73
2022/10/08 07:18:36;;;;;;;7.83;3.37;;;15.60;99.90;;;;;;5035003;28;20663;-73
2022/10/08 07:21:03;;;;;;;3.80;2.60;;;15.60;99.90;;;;;;5017307;28;20591;-73
2022/10/08 07:23:29;;;;;;;4.17;2.03;;;15.60;99.90;;;;;;5015706;28;20593;-74
2022/10/08 07:26:08;;;;;;;4.20;2.20;;;15.60;99.90;;;;;;5034722;28;20608;-73
2022/10/08 07:28:36;;;;;;;5.27;2.60;;;15.70;99.90;;;;;;5017096;28;20588;-74
2022/10/08 07:31:25;;;;;;;5.07;3.13;;;15.70;99.90;;;;;;5025989;28;20673;-73
2022/10/08 07:33:51;;;;;;;8.30;3.30;;;15.80;99.90;;;;;;5026154;28;20628;-72
2022/10/08 07:36:22;;;;;;;5.43;2.90;;;15.80;99.90;;;;;;5034037;28;20638;-73
2022/10/08 07:38:55;;;;;;;5.30;2.70;;;15.90;99.90;;;;;;5000449;28;20932;-73
2022/10/08 07:41:21;;;;;;;4.93;2.70;;;16.10;99.90;;;;;;5029778;28;21131;-74
2022/10/08 07:43:57;;;;;;;9.03;2.73;;;16.20;99.90;;;;;;5026854;28;20607;-74
2022/10/08 07:46:22;;;;;;;5.73;3.00;;;16.30;99.90;;;;;;5016045;28;20185;-74
2022/10/08 07:48:49;;;;;;;5.40;2.30;;;16.40;99.90;;;;;;5026708;28;20599;-74
2022/10/08 07:51:17;;;;;;;6.73;2.60;;;16.50;99.90;;;;;;5016346;28;20185;-74
2022/10/08 07:53:44;;;;;;;4.23;2.50;;;16.50;99.90;;;;;;5034108;28;20623;-74
2022/10/08 07:56:11;;;;;;;5.70;2.33;;;16.60;99.90;;;;;;5034531;28;21028;-74
2022/10/08 07:58:37;;;;;;;5.20;2.90;;;16.60;99.90;;;;;;5034331;28;20568;-74
2022/10/08 08:01:06;;;;;;;6.80;2.87;;;16.70;99.90;;;;;;5016324;28;20920;-74
2022/10/08 08:03:32;;;;;;;8.47;4.10;;;16.70;99.90;;;;;;5015339;28;20588;-73
2022/10/08 08:06:03;;;;;;;5.30;3.30;;;16.80;99.90;;;;;;5034201;28;20639;-73
2022/10/08 08:08:30;;;;;;;4.73;2.57;;;16.80;99.90;;;;;;5016631;28;20565;-73
2022/10/08 08:11:00;;;;;;;6.53;2.83;;;16.90;99.90;;;;;;5034127;28;20607;-74
2022/10/08 08:13:28;;;;;;;5.80;3.60;;;16.90;99.90;;;;;;5016020;28;21203;-73
2022/10/08 08:15:59;;;;;;;5.57;3.43;;;17.00;99.90;;;;;;5033763;28;20599;-74
2022/10/08 08:18:29;;;;;;;4.07;3.53;;;17.00;99.90;;;;;;4999960;28;21205;-74
2022/10/08 08:20:59;;;;;;;7.30;3.87;;;17.10;99.90;;;;;;5033225;28;20639;-74
2022/10/08 08:23:38;;;;;;;7.03;3.00;;;17.40;99.90;;;;;;5025520;28;20932;-74
2022/10/08 08:26:06;;;;;;;7.23;3.20;;;18.20;99.90;;;;;;5033872;28;20673;-74
2022/10/08 08:28:32;;;;;;;6.40;2.47;;;19.10;99.90;;;;;;5033698;28;20580;-74
2022/10/08 08:31:12;;;;;;;4.10;2.80;;;19.70;99.90;;;;;;5015958;28;20600;-74
2022/10/08 08:33:38;;;;;;;4.17;2.70;;;19.90;99.90;;;;;;5015589;28;20952;-75
2022/10/08 08:36:04;;;;;;;5.87;2.60;;;20.10;99.90;;;;;;5033916;28;20556;-74
2022/10/08 08:38:32;;;;;;;4.90;2.83;;;20.10;99.90;;;;;;5033894;28;20564;-74
2022/10/08 08:41:12;;;;;;;10.17;2.60;;;20.00;99.90;;;;;;5016012;28;20572;-74
2022/10/08 08:43:38;;;;;;;5.23;2.30;;;20.40;99.90;;;;;;5033132;28;20895;-74
2022/10/08 08:46:04;;;;;;;3.60;1.90;;;20.70;99.90;;;;;;5033747;28;20560;-75
2022/10/08 08:48:36;;;;;;;6.33;2.53;;;20.90;99.90;;;;;;5033528;28;20231;-74
2022/10/08 08:51:03;;;;;;;4.30;2.60;;;21.10;99.90;;;;;;5033423;28;20920;-74
2022/10/08 08:53:29;;;;;;;5.63;2.00;;;21.40;99.90;;;;;;5033161;28;20710;-74
2022/10/08 08:55:58;;;;;;;11.77;2.13;;;22.20;99.90;;;;;;5015628;28;20596;-75
2022/10/08 08:58:36;;;;;;;4.37;1.97;;;23.20;99.90;;;;;;5015716;28;20576;-75
2022/10/08 09:01:04;;;;;;;7.47;1.83;;;24.00;99.90;;;;;;5015394;28;20658;-75
2022/10/08 09:03:40;;;;;;;5.23;1.40;;;24.50;99.90;;;;;;5033057;28;21138;-75
2022/10/08 09:06:13;;;;;;;5.70;2.03;;;24.80;99.90;;;;;;5015594;28;20682;-74
2022/10/08 09:08:54;;;;;;;5.10;1.50;;;25.00;99.90;;;;;;5015541;28;20572;-75
2022/10/08 09:11:21;;;;;;;4.87;2.57;;;25.00;99.90;;;;;;5033064;28;20580;-74
2022/10/08 09:13:55;;;;;;;4.00;2.10;;;25.10;99.90;;;;;;5032282;28;20620;-74
2022/10/08 09:16:21;;;;;;;7.67;1.60;;;25.50;99.90;;;;;;5033093;28;20557;-74
2022/10/08 09:18:50;;;;;;;5.33;2.13;;;26.00;99.90;;;;;;5032965;28;21131;-75
2022/10/08 09:21:16;;;;;;;4.90;2.13;;;26.70;99.90;;;;;;5031658;28;21146;-74
2022/10/08 09:23:43;;;;;;;7.60;2.43;;;27.30;99.90;;;;;;4997597;28;20597;-75
2022/10/08 09:26:20;;;;;;;6.63;2.40;;;27.70;99.90;;;;;;5031616;28;20580;-74
2022/10/08 09:28:52;;;;;;;4.47;2.60;;;27.80;99.40;;;;;;5015049;28;21159;-75
2022/10/08 09:31:38;;;;;;;6.40;2.30;;;27.50;97.20;;;;;;5032363;28;20585;-74
2022/10/08 09:34:11;;;;;;;4.53;2.23;;;27.20;96.50;;;;;;4995096;28;20727;-73
2022/10/08 09:36:47;;;;;;;5.80;1.63;;;26.80;94.90;;;;;;4995275;28;20927;-74
2022/10/08 09:39:24;;;;;;;5.50;2.57;;;26.20;95.30;;;;;;5006630;28;20580;-73
2022/10/08 09:42:05;;;;;;;3.30;1.63;;;25.80;95.20;;;;;;5032268;28;20627;-73
2022/10/08 09:44:49;;;;;;;4.17;1.50;;;25.80;95.80;;;;;;5031979;28;20619;-73
2022/10/08 09:47:20;;;;;;;11.73;2.20;;;25.90;96.10;;;;;;5015133;28;20596;-73
2022/10/08 09:50:01;;;;;;;4.23;1.50;;;26.10;96.80;;;;;;5028958;28;20588;-73
2022/10/08 09:52:27;;;;;;;6.33;1.70;;;26.30;96.50;;;;;;5001088;28;20998;-73
2022/10/08 09:55:28;;;;;;;6.30;2.20;;;26.50;95.70;;;;;;5031408;28;20732;-73
2022/10/08 09:57:59;;;;;;;6.03;2.37;;;26.80;95.20;;;;;;4986041;28;20620;-74
2022/10/08 10:00:34;;;;;;;3.80;1.50;;;27.10;95.30;;;;;;5012346;28;20565;-73
2022/10/08 10:03:01;;;;;;;4.20;2.13;;;27.30;94.00;;;;;;4963124;28;20584;-73
2022/10/08 10:05:32;;;;;;;5.73;1.50;;;27.40;93.80;;;;;;5012020;28;20624;-73
2022/10/08 10:07:58;;;;;;;2.60;1.33;;;27.20;90.80;;;;;;4994846;28;20565;-73
2022/10/08 10:10:37;;;;;;;3.60;1.20;;;26.80;91.60;;;;;;5012210;28;20567;-73
2022/10/08 10:13:10;;;;;;;3.40;1.30;;;26.60;91.10;;;;;;5013092;28;20652;-74
2022/10/08 10:15:43;;;;;;;4.43;1.30;;;26.60;91.30;;;;;;5013742;28;20969;-74
2022/10/08 10:18:22;;;;;;;3.90;1.30;;;26.80;92.00;;;;;;5014215;28;20572;-74
2022/10/08 10:20:54;;;;;;;10.83;1.57;;;26.90;91.90;;;;;;5031824;28;20974;-75
2022/10/08 10:23:36;;;;;;;2.63;1.10;;;27.10;91.30;;;;;;5014171;28;21215;-73
2022/10/08 10:26:10;;;;;;;3.93;1.00;;;27.00;90.10;;;;;;5031009;28;20603;-73
2022/10/08 10:28:49;;;;;;;4.20;1.43;;;26.70;86.30;;;;;;5031699;28;20571;-73
2022/10/08 10:31:16;;;;;;;3.77;1.77;;;26.30;85.40;;;;;;5031647;28;20568;-73
2022/10/08 10:34:13;;;;;;;3.50;1.43;;;25.80;85.10;;;;;;5031214;28;20616;-73
2022/10/08 10:36:50;;;;;;;3.90;1.53;;;25.40;85.80;;;;;;5014012;28;20561;-73
2022/10/08 10:39:26;;;;;;;3.70;1.50;;;25.20;87.30;;;;;;5011716;28;20621;-73
2022/10/08 10:42:06;;;;;;;3.43;1.20;;;25.10;89.80;;;;;;5030055;28;20576;-73
2022/10/08 10:44:53;;;;;;;3.83;1.27;;;25.10;90.00;;;;;;5031846;28;20623;-73
2022/10/08 10:47:24;;;;;;;4.00;1.50;;;24.90;83.30;;;;;;5013988;28;20588;-73
2022/10/08 10:49:51;;;;;;;2.93;1.13;;;24.80;88.90;;;;;;5031399;28;20602;-73
2022/10/08 10:52:43;;;;;;;4.80;1.50;;;24.50;88.40;;;;;;5031334;28;20617;-74
2022/10/08 10:55:50;;;;;;;5.67;1.10;;;24.20;87.70;;;;;;5013463;28;20751;-74
2022/10/08 10:58:22;;;;;;;1.77;1.10;;;23.90;88.90;;;;;;5031490;28;20603;-74
2022/10/08 11:00:59;;;;;;;4.20;1.50;;;23.90;90.50;;;;;;5013788;28;20576;-74
2022/10/08 11:03:43;;;;;;;2.30;1.00;;;23.70;90.30;;;;;;5012612;28;21028;-74
2022/10/08 11:06:27;;;;;;;4.13;1.20;;;23.50;89.60;;;;;;5029578;28;20576;-74
2022/10/08 11:09:09;;;;;;;3.13;1.23;;;23.30;89.10;;;;;;5027921;28;20577;-73
2022/10/08 11:11:42;;;;;;;4.47;1.40;;;22.90;88.20;;;;;;5029165;28;20599;-74
2022/10/08 11:14:36;;;;;;;2.27;1.00;;;22.50;88.20;;;;;;5018660;28;20746;-74
2022/10/08 11:17:23;;;;;;;4.77;1.20;;;22.20;88.90;;;;;;5030999;28;21152;-74
2022/10/08 11:20:23;;;;;;;4.43;1.20;;;21.80;88.40;;;;;;5028693;28;21248;-76
2022/10/08 11:23:04;;;;;;;5.10;1.60;;;21.50;89.20;;;;;;5020443;28;20580;-74
2022/10/08 11:25:41;;;;;;;6.40;2.00;;;21.20;89.10;;;;;;4978699;28;20616;-74
2022/10/08 11:28:24;;;;;;;4.40;1.20;;;20.90;90.20;;;;;;5030443;28;20560;-74
2022/10/08 11:31:22;;;;;;;3.90;1.43;;;20.90;91.20;;;;;;5030303;28;20929;-74
2022/10/08 11:33:49;;;;;;;8.57;1.70;;;20.90;91.20;;;;;;5029903;28;20615;-76
2022/10/08 11:36:25;;;;;;;4.40;1.40;;;20.90;91.00;;;;;;5031103;28;20591;-74
2022/10/08 11:39:10;;;;;;;3.97;0.83;;;20.90;91.60;;;;;;5016179;28;20607;-74
2022/10/08 11:41:56;;;;;;;4.57;0.93;;;21.10;92.40;;;;;;5034176;28;20603;-74
2022/10/08 11:44:23;;;;;;;3.83;1.10;;;21.20;91.30;;;;;;5033941;28;20616;-74
2022/10/08 11:46:49;;;;;;;4.93;1.00;;;21.40;92.10;;;;;;5034478;28;21343;-74
2022/10/08 11:49:15;;;;;;;2.43;1.00;;;21.60;92.20;;;;;;5034249;28;20588;-74
2022/10/08 11:51:45;;;;;;;4.90;1.40;;;21.80;92.10;;;;;;5034170;28;20205;-74
2022/10/08 11:54:30;;;;;;;1.80;0.80;;;22.00;91.80;;;;;;5028682;28;20205;-74
2022/10/08 11:57:18;;;;;;;3.37;0.90;;;22.10;91.30;;;;;;5016700;28;20580;-74
2022/10/08 11:59:45;;;;;;;3.13;1.40;;;22.10;91.00;;;;;;5032839;28;20591;-74
2022/10/08 12:02:26;;;;;;;6.07;2.33;;;22.20;90.80;;;;;;5033749;28;20568;-74
2022/10/08 12:04:53;;;;;;;10.77;5.60;;;22.10;90.20;;;;;;5015483;28;20988;-74
2022/10/08 12:07:33;;;;;;;5.97;2.70;;;22.10;89.60;;;;;;5033718;28;21139;-74
2022/10/08 12:10:07;;;;;;;4.70;1.83;;;21.80;88.90;;;;;;5033790;28;20572;-72
2022/10/08 12:12:48;;;;;;;3.77;1.13;;;21.70;89.00;;;;;;5033383;28;21153;-75
2022/10/08 12:15:42;;;;;;;5.70;1.30;;;21.70;88.20;;;;;;5033504;28;20647;-73
2022/10/08 12:18:16;;;;;;;3.13;0.93;;;21.70;87.80;;;;;;5020440;28;20597;-73
2022/10/08 12:20:42;;;;;;;6.53;1.70;;;21.90;90.40;;;;;;5033848;28;20567;-74
2022/10/08 12:23:10;;;;;;;3.10;1.40;;;22.10;90.30;;;;;;5015784;28;20585;-73
2022/10/08 12:25:59;;;;;;;4.80;2.77;;;22.20;90.30;;;;;;5033254;28;21052;-73
2022/10/08 12:28:28;;;;;;;4.97;2.20;;;22.10;87.10;;;;;;5005041;28;21174;-73
2022/10/08 12:31:00;;;;;;;5.83;2.17;;;22.10;87.50;;;;;;5033593;28;20576;-73
2022/10/08 12:33:27;;;;;;;7.93;3.57;;;21.90;86.40;;;;;;5015388;28;20659;-73
2022/10/08 12:36:13;;;;;;;4.50;1.50;;;21.70;85.80;;;;;;5033399;28;21293;-72
2022/10/08 12:38:56;;;;;;;5.13;1.97;;;21.50;84.70;;;;;;5015667;28;21116;-73
2022/10/08 12:41:36;;;;;;;9.07;2.90;;;21.20;84.10;;;;;;5033337;28;21128;-73
2022/10/08 12:44:29;;;;;;;4.13;2.50;;;21.00;83.90;;;;;;5032492;28;20727;-73
2022/10/08 12:47:09;;;;;;;7.10;2.47;;;20.80;83.90;;;;;;5033360;28;21052;-74
2022/10/08 12:49:48;;;;;;;2.97;1.40;;;20.60;83.70;;;;;;5028834;28;21018;-73
2022/10/08 12:52:16;;;;;;;2.57;1.10;;;20.40;83.70;;;;;;5032745;28;20588;-74
2022/10/08 12:54:55;;;;;;;5.67;1.60;;;20.30;84.80;;;;;;5032487;28;20643;-73
2022/10/08 12:57:35;;;;;;;2.37;0.90;;;20.20;85.50;;;;;;4982505;28;20958;-73
2022/10/08 13:00:23;;;;;;;2.90;1.70;;;20.10;84.30;;;;;;5030144;28;20579;-74
2022/10/08 13:03:11;;;;;;;3.40;1.03;;;20.10;83.90;;;;;;5031117;28;20576;-74
2022/10/08 13:05:38;;;;;;;2.53;0.77;;;20.10;83.50;;;;;;5031167;28;20612;-74
2022/10/08 13:08:29;;;;;;;3.30;0.70;;;20.10;82.60;;;;;;5032530;28;21016;-74
2022/10/08 13:10:56;;;;;;;2.67;0.90;;;20.00;81.70;;;;;;5029251;28;20689;-74